sensor_id;sensor_type;location;lat;lon;timestamp;pressure;altitude;pressure_sealevel;temperature;humidity
71768;BME280;59604;52.138;5.446;2022-09-17T00:00:40;101471.03;;;11.47;78.76
71768;BME280;59604;52.138;5.446;2022-09-17T00:03:07;101466.22;;;11.51;78.97
71768;BME280;59604;52.138;5.446;2022-09-17T00:05:36;101474.31;;;11.49;79.00
71768;BME280;59604;52.138;5.446;2022-09-17T00:08:08;101471.84;;;11.48;78.98
71768;BME280;59604;52.138;5.446;2022-09-17T00:10:40;101484.22;;;11.47;78.37
71768;BME280;59604;52.138;5.446;2022-09-17T00:13:07;101481.59;;;11.47;79.01
71768;BME280;59604;52.138;5.446;2022-09-17T00:15:43;101488.13;;;11.51;79.07
71768;BME280;59604;52.138;5.446;2022-09-17T00:18:10;101488.81;;;11.53;79.68
71768;BME280;59604;52.138;5.446;2022-09-17T00:20:43;101480.88;;;11.53;80.03
71768;BME280;59604;52.138;5.446;2022-09-17T00:23:11;101481.03;;;11.52;80.77
71768;BME280;59604;52.138;5.446;2022-09-17T00:25:43;101477.94;;;11.48;80.45
71768;BME280;59604;52.138;5.446;2022-09-17T00:28:11;101477.13;;;11.48;80.08
71768;BME280;59604;52.138;5.446;2022-09-17T00:30:43;101491.50;;;11.45;80.01
71768;BME280;59604;52.138;5.446;2022-09-17T00:33:12;101488.22;;;11.43;79.89
71768;BME280;59604;52.138;5.446;2022-09-17T00:35:39;101489.38;;;11.41;80.22
71768;BME280;59604;52.138;5.446;2022-09-17T00:38:06;101496.00;;;11.36;80.20
71768;BME280;59604;52.138;5.446;2022-09-17T00:40:33;101499.81;;;11.34;80.24
71768;BME280;59604;52.138;5.446;2022-09-17T00:42:59;101500.19;;;11.31;80.12
71768;BME280;59604;52.138;5.446;2022-09-17T00:45:26;101498.06;;;11.26;80.36
71768;BME280;59604;52.138;5.446;2022-09-17T00:48:00;101496.75;;;11.30;79.95
71768;BME280;59604;52.138;5.446;2022-09-17T00:50:33;101501.16;;;11.30;80.19
71768;BME280;59604;52.138;5.446;2022-09-17T00:53:15;101504.00;;;11.28;79.84
71768;BME280;59604;52.138;5.446;2022-09-17T00:56:08;101501.34;;;11.28;79.85
71768;BME280;59604;52.138;5.446;2022-09-17T00:58:34;101505.81;;;11.28;79.84
71768;BME280;59604;52.138;5.446;2022-09-17T01:01:06;101506.63;;;11.28;79.49
71768;BME280;59604;52.138;5.446;2022-09-17T01:03:33;101499.06;;;11.25;79.28
71768;BME280;59604;52.138;5.446;2022-09-17T01:11:30;101500.41;;;11.21;79.15
71768;BME280;59604;52.138;5.446;2022-09-17T01:14:23;101499.94;;;11.18;79.51
71768;BME280;59604;52.138;5.446;2022-09-17T01:31:02;101514.09;;;10.94;79.59
71768;BME280;59604;52.138;5.446;2022-09-17T01:33:40;101513.25;;;10.93;79.78
71768;BME280;59604;52.138;5.446;2022-09-17T01:39:58;101517.72;;;10.93;79.35
71768;BME280;59604;52.138;5.446;2022-09-17T01:42:24;101520.50;;;10.99;78.43
71768;BME280;59604;52.138;5.446;2022-09-17T01:45:00;101524.75;;;11.00;78.31
71768;BME280;59604;52.138;5.446;2022-09-17T01:47:33;101527.38;;;11.00;77.50
71768;BME280;59604;52.138;5.446;2022-09-17T01:50:11;101526.03;;;11.04;77.17
71768;BME280;59604;52.138;5.446;2022-09-17T01:52:41;101527.53;;;11.07;76.74
71768;BME280;59604;52.138;5.446;2022-09-17T01:55:13;101529.00;;;11.09;76.59
71768;BME280;59604;52.138;5.446;2022-09-17T01:58:19;101525.84;;;11.14;76.26
71768;BME280;59604;52.138;5.446;2022-09-17T02:00:42;101524.69;;;11.17;75.53
71768;BME280;59604;52.138;5.446;2022-09-17T02:03:21;101527.13;;;11.18;74.97
71768;BME280;59604;52.138;5.446;2022-09-17T02:06:03;101531.41;;;11.19;74.95
71768;BME280;59604;52.138;5.446;2022-09-17T02:08:40;101535.69;;;11.20;74.08
71768;BME280;59604;52.138;5.446;2022-09-17T02:11:11;101539.16;;;11.21;73.85
71768;BME280;59604;52.138;5.446;2022-09-17T02:13:43;101538.50;;;11.19;74.29
71768;BME280;59604;52.138;5.446;2022-09-17T02:16:20;101539.03;;;11.14;74.11
71768;BME280;59604;52.138;5.446;2022-09-17T02:18:54;101536.91;;;11.09;74.12
71768;BME280;59604;52.138;5.446;2022-09-17T02:24:10;101540.56;;;11.00;74.63
71768;BME280;59604;52.138;5.446;2022-09-17T02:26:42;101538.31;;;10.97;74.37
71768;BME280;59604;52.138;5.446;2022-09-17T02:29:21;101540.94;;;10.97;74.19
71768;BME280;59604;52.138;5.446;2022-09-17T02:31:50;101534.81;;;10.97;74.65
71768;BME280;59604;52.138;5.446;2022-09-17T02:34:17;101538.66;;;10.94;74.66
71768;BME280;59604;52.138;5.446;2022-09-17T02:36:45;101535.53;;;10.91;74.57
71768;BME280;59604;52.138;5.446;2022-09-17T02:39:12;101538.50;;;10.87;74.78
71768;BME280;59604;52.138;5.446;2022-09-17T02:41:59;101536.03;;;10.86;74.67
71768;BME280;59604;52.138;5.446;2022-09-17T02:47:33;101549.72;;;10.81;74.99
71768;BME280;59604;52.138;5.446;2022-09-17T02:54:30;101553.06;;;10.75;75.24
71768;BME280;59604;52.138;5.446;2022-09-17T03:02:24;101549.47;;;10.60;75.70
71768;BME280;59604;52.138;5.446;2022-09-17T03:04:55;101549.00;;;10.56;76.30
71768;BME280;59604;52.138;5.446;2022-09-17T03:07:22;101554.97;;;10.50;76.18
71768;BME280;59604;52.138;5.446;2022-09-17T03:09:49;101557.94;;;10.47;76.58
71768;BME280;59604;52.138;5.446;2022-09-17T03:12:16;101558.44;;;10.43;77.14
71768;BME280;59604;52.138;5.446;2022-09-17T03:14:43;101556.16;;;10.39;77.58
71768;BME280;59604;52.138;5.446;2022-09-17T03:17:10;101555.47;;;10.37;77.86
71768;BME280;59604;52.138;5.446;2022-09-17T03:19:37;101550.53;;;10.34;78.14
71768;BME280;59604;52.138;5.446;2022-09-17T03:22:03;101546.28;;;10.33;78.26
71768;BME280;59604;52.138;5.446;2022-09-17T03:24:30;101547.09;;;10.34;78.32
71768;BME280;59604;52.138;5.446;2022-09-17T03:26:56;101544.66;;;10.32;78.72
71768;BME280;59604;52.138;5.446;2022-09-17T03:29:23;101544.78;;;10.31;78.86
71768;BME280;59604;52.138;5.446;2022-09-17T03:31:49;101545.97;;;10.28;78.84
71768;BME280;59604;52.138;5.446;2022-09-17T03:34:16;101546.13;;;10.27;79.33
71768;BME280;59604;52.138;5.446;2022-09-17T03:36:43;101538.06;;;10.28;79.15
71768;BME280;59604;52.138;5.446;2022-09-17T03:39:09;101538.88;;;10.29;79.10
71768;BME280;59604;52.138;5.446;2022-09-17T03:41:36;101543.50;;;10.27;79.65
71768;BME280;59604;52.138;5.446;2022-09-17T03:44:02;101540.34;;;10.23;79.32
71768;BME280;59604;52.138;5.446;2022-09-17T03:46:29;101536.06;;;10.22;79.62
71768;BME280;59604;52.138;5.446;2022-09-17T03:48:56;101543.66;;;10.17;79.84
71768;BME280;59604;52.138;5.446;2022-09-17T03:51:23;101542.19;;;10.14;80.13
71768;BME280;59604;52.138;5.446;2022-09-17T03:53:49;101552.88;;;10.13;80.12
71768;BME280;59604;52.138;5.446;2022-09-17T03:56:16;101555.66;;;10.11;80.08
71768;BME280;59604;52.138;5.446;2022-09-17T03:58:43;101555.03;;;10.09;80.46
71768;BME280;59604;52.138;5.446;2022-09-17T04:01:10;101563.06;;;10.08;80.22
71768;BME280;59604;52.138;5.446;2022-09-17T04:03:36;101559.47;;;10.09;80.20
71768;BME280;59604;52.138;5.446;2022-09-17T04:06:03;101555.34;;;10.06;80.79
71768;BME280;59604;52.138;5.446;2022-09-17T04:08:30;101561.63;;;10.05;80.36
71768;BME280;59604;52.138;5.446;2022-09-17T04:10:56;101569.16;;;10.08;80.68
71768;BME280;59604;52.138;5.446;2022-09-17T04:13:22;101567.19;;;10.10;81.03
71768;BME280;59604;52.138;5.446;2022-09-17T04:15:49;101576.25;;;10.08;80.89
71768;BME280;59604;52.138;5.446;2022-09-17T04:18:17;101570.97;;;10.08;80.92
71768;BME280;59604;52.138;5.446;2022-09-17T04:20:44;101561.44;;;10.07;80.71
71768;BME280;59604;52.138;5.446;2022-09-17T04:23:11;101562.75;;;10.11;80.79
71768;BME280;59604;52.138;5.446;2022-09-17T04:25:37;101568.50;;;10.14;80.21
71768;BME280;59604;52.138;5.446;2022-09-17T04:28:04;101565.53;;;10.18;79.66
71768;BME280;59604;52.138;5.446;2022-09-17T04:30:31;101567.84;;;10.21;79.54
71768;BME280;59604;52.138;5.446;2022-09-17T04:32:58;101570.31;;;10.22;79.59
71768;BME280;59604;52.138;5.446;2022-09-17T04:35:25;101565.34;;;10.19;78.99
71768;BME280;59604;52.138;5.446;2022-09-17T04:37:53;101569.00;;;10.18;79.01
71768;BME280;59604;52.138;5.446;2022-09-17T04:40:21;101561.28;;;10.16;78.75
71768;BME280;59604;52.138;5.446;2022-09-17T04:42:51;101558.97;;;10.13;79.12
71768;BME280;59604;52.138;5.446;2022-09-17T04:45:18;101560.13;;;10.11;79.10
71768;BME280;59604;52.138;5.446;2022-09-17T04:47:45;101568.00;;;10.11;78.72
71768;BME280;59604;52.138;5.446;2022-09-17T04:50:11;101571.78;;;10.08;78.89
71768;BME280;59604;52.138;5.446;2022-09-17T04:52:42;101567.19;;;10.10;78.86
71768;BME280;59604;52.138;5.446;2022-09-17T04:55:10;101565.56;;;10.09;78.89
71768;BME280;59604;52.138;5.446;2022-09-17T04:57:37;101573.78;;;10.06;78.99
71768;BME280;59604;52.138;5.446;2022-09-17T05:00:05;101575.09;;;10.02;79.19
71768;BME280;59604;52.138;5.446;2022-09-17T05:02:35;101563.75;;;10.02;79.38
71768;BME280;59604;52.138;5.446;2022-09-17T05:05:02;101563.28;;;9.98;79.29
71768;BME280;59604;52.138;5.446;2022-09-17T05:07:28;101566.22;;;9.95;79.25
71768;BME280;59604;52.138;5.446;2022-09-17T05:09:55;101567.38;;;9.92;79.58
71768;BME280;59604;52.138;5.446;2022-09-17T05:12:21;101572.13;;;9.89;79.57
71768;BME280;59604;52.138;5.446;2022-09-17T05:14:48;101579.41;;;9.87;79.58
71768;BME280;59604;52.138;5.446;2022-09-17T05:17:14;101575.28;;;9.84;79.60
71768;BME280;59604;52.138;5.446;2022-09-17T05:19:41;101584.31;;;9.82;79.98
71768;BME280;59604;52.138;5.446;2022-09-17T05:22:07;101582.66;;;9.81;80.06
71768;BME280;59604;52.138;5.446;2022-09-17T05:24:34;101589.91;;;9.79;80.21
71768;BME280;59604;52.138;5.446;2022-09-17T05:27:07;101585.94;;;9.75;80.25
71768;BME280;59604;52.138;5.446;2022-09-17T05:29:34;101596.47;;;9.75;79.98
71768;BME280;59604;52.138;5.446;2022-09-17T05:32:05;101599.44;;;9.72;80.08
71768;BME280;59604;52.138;5.446;2022-09-17T05:34:32;101587.13;;;9.72;79.72
71768;BME280;59604;52.138;5.446;2022-09-17T05:36:59;101593.19;;;9.73;79.62
71768;BME280;59604;52.138;5.446;2022-09-17T05:39:25;101595.16;;;9.79;79.35
71768;BME280;59604;52.138;5.446;2022-09-17T05:41:52;101601.41;;;9.86;79.03
71768;BME280;59604;52.138;5.446;2022-09-17T05:44:19;101602.56;;;9.91;78.63
71768;BME280;59604;52.138;5.446;2022-09-17T05:46:46;101609.97;;;9.96;78.50
71768;BME280;59604;52.138;5.446;2022-09-17T05:49:13;101615.41;;;10.03;78.48
71768;BME280;59604;52.138;5.446;2022-09-17T05:51:41;101614.88;;;10.15;77.82
71768;BME280;59604;52.138;5.446;2022-09-17T05:54:07;101627.41;;;10.30;77.41
71768;BME280;59604;52.138;5.446;2022-09-17T05:56:34;101622.50;;;10.35;77.61
71768;BME280;59604;52.138;5.446;2022-09-17T05:59:01;101620.00;;;10.33;77.57
71768;BME280;59604;52.138;5.446;2022-09-17T06:01:28;101616.88;;;10.30;78.13
71768;BME280;59604;52.138;5.446;2022-09-17T06:03:55;101607.81;;;10.24;78.11
71768;BME280;59604;52.138;5.446;2022-09-17T06:06:21;101606.34;;;10.22;78.66
71768;BME280;59604;52.138;5.446;2022-09-17T06:08:48;101623.13;;;10.21;78.61
71768;BME280;59604;52.138;5.446;2022-09-17T06:11:15;101620.50;;;10.21;78.66
71768;BME280;59604;52.138;5.446;2022-09-17T06:13:41;101620.19;;;10.24;78.24
71768;BME280;59604;52.138;5.446;2022-09-17T06:16:09;101620.03;;;10.25;79.03
71768;BME280;59604;52.138;5.446;2022-09-17T06:18:35;101617.88;;;10.29;78.64
71768;BME280;59604;52.138;5.446;2022-09-17T06:21:03;101623.16;;;10.29;78.63
71768;BME280;59604;52.138;5.446;2022-09-17T06:23:31;101623.47;;;10.34;79.21
71768;BME280;59604;52.138;5.446;2022-09-17T06:26:04;101629.22;;;10.37;79.28
71768;BME280;59604;52.138;5.446;2022-09-17T06:28:31;101616.53;;;10.41;79.02
71768;BME280;59604;52.138;5.446;2022-09-17T06:31:02;101623.13;;;10.45;79.25
71768;BME280;59604;52.138;5.446;2022-09-17T06:33:30;101621.78;;;10.49;79.33
71768;BME280;59604;52.138;5.446;2022-09-17T06:35:58;101626.25;;;10.57;79.09
71768;BME280;59604;52.138;5.446;2022-09-17T06:38:26;101628.19;;;10.63;79.19
71768;BME280;59604;52.138;5.446;2022-09-17T06:40:53;101621.75;;;10.66;79.09
71768;BME280;59604;52.138;5.446;2022-09-17T06:43:20;101627.34;;;10.71;79.43
71768;BME280;59604;52.138;5.446;2022-09-17T06:46:05;101621.88;;;10.80;79.91
71768;BME280;59604;52.138;5.446;2022-09-17T06:48:35;101636.00;;;10.96;79.60
71768;BME280;59604;52.138;5.446;2022-09-17T06:51:06;101634.47;;;11.09;79.02
71768;BME280;59604;52.138;5.446;2022-09-17T06:53:34;101632.78;;;11.17;78.64
71768;BME280;59604;52.138;5.446;2022-09-17T06:56:03;101631.25;;;11.22;78.24
71768;BME280;59604;52.138;5.446;2022-09-17T06:58:33;101633.22;;;11.28;78.21
71768;BME280;59604;52.138;5.446;2022-09-17T07:01:03;101634.81;;;11.37;78.19
71768;BME280;59604;52.138;5.446;2022-09-17T07:03:30;101638.06;;;11.48;78.21
71768;BME280;59604;52.138;5.446;2022-09-17T07:05:57;101642.13;;;11.58;77.22
71768;BME280;59604;52.138;5.446;2022-09-17T07:08:24;101640.69;;;11.71;77.62
71768;BME280;59604;52.138;5.446;2022-09-17T07:10:55;101642.31;;;11.80;76.40
71768;BME280;59604;52.138;5.446;2022-09-17T07:13:22;101639.84;;;11.78;75.29
71768;BME280;59604;52.138;5.446;2022-09-17T07:15:57;101639.19;;;11.76;76.09
71768;BME280;59604;52.138;5.446;2022-09-17T07:18:24;101636.09;;;11.73;76.34
71768;BME280;59604;52.138;5.446;2022-09-17T07:20:56;101636.09;;;11.73;75.96
71768;BME280;59604;52.138;5.446;2022-09-17T07:23:24;101636.56;;;11.76;76.08
71768;BME280;59604;52.138;5.446;2022-09-17T07:25:59;101632.09;;;11.77;76.01
71768;BME280;59604;52.138;5.446;2022-09-17T07:28:27;101625.66;;;11.79;75.20
71768;BME280;59604;52.138;5.446;2022-09-17T07:30:54;101625.97;;;11.84;75.14
71768;BME280;59604;52.138;5.446;2022-09-17T07:33:25;101628.72;;;11.91;74.89
71768;BME280;59604;52.138;5.446;2022-09-17T07:36:01;101631.47;;;11.98;74.76
71768;BME280;59604;52.138;5.446;2022-09-17T07:38:29;101622.84;;;12.04;74.74
71768;BME280;59604;52.138;5.446;2022-09-17T07:40:58;101631.88;;;12.09;73.92
71768;BME280;59604;52.138;5.446;2022-09-17T07:43:27;101635.81;;;12.14;74.08
71768;BME280;59604;52.138;5.446;2022-09-17T07:45:56;101634.44;;;12.18;73.98
71768;BME280;59604;52.138;5.446;2022-09-17T07:48:23;101637.28;;;12.16;73.67
71768;BME280;59604;52.138;5.446;2022-09-17T07:50:50;101634.75;;;12.23;73.98
71768;BME280;59604;52.138;5.446;2022-09-17T07:53:17;101648.13;;;12.36;73.25
71768;BME280;59604;52.138;5.446;2022-09-17T07:55:59;101649.75;;;12.60;72.50
71768;BME280;59604;52.138;5.446;2022-09-17T07:58:31;101649.00;;;12.81;71.75
71768;BME280;59604;52.138;5.446;2022-09-17T08:01:04;101644.91;;;12.78;71.61
71768;BME280;59604;52.138;5.446;2022-09-17T08:03:32;101648.09;;;12.74;72.63
71768;BME280;59604;52.138;5.446;2022-09-17T08:06:04;101647.81;;;12.69;72.96
71768;BME280;59604;52.138;5.446;2022-09-17T08:08:32;101651.19;;;12.63;72.70
71768;BME280;59604;52.138;5.446;2022-09-17T08:11:05;101660.03;;;12.70;72.43
71768;BME280;59604;52.138;5.446;2022-09-17T08:13:32;101652.09;;;12.85;72.04
71768;BME280;59604;52.138;5.446;2022-09-17T08:16:00;101660.59;;;12.95;71.30
71768;BME280;59604;52.138;5.446;2022-09-17T08:18:27;101656.50;;;13.07;71.22
71768;BME280;59604;52.138;5.446;2022-09-17T08:20:58;101667.94;;;13.14;70.53
71768;BME280;59604;52.138;5.446;2022-09-17T08:23:27;101659.56;;;13.25;69.58
71768;BME280;59604;52.138;5.446;2022-09-17T08:25:55;101671.16;;;13.24;70.86
71768;BME280;59604;52.138;5.446;2022-09-17T08:28:25;101663.41;;;13.08;70.43
71768;BME280;59604;52.138;5.446;2022-09-17T08:30:53;101654.13;;;12.82;73.57
71768;BME280;59604;52.138;5.446;2022-09-17T08:33:20;101661.13;;;12.61;73.72
71768;BME280;59604;52.138;5.446;2022-09-17T08:35:53;101655.34;;;12.42;73.87
71768;BME280;59604;52.138;5.446;2022-09-17T08:38:20;101666.81;;;12.35;74.08
71768;BME280;59604;52.138;5.446;2022-09-17T08:43:33;101667.28;;;12.38;75.16
71768;BME280;59604;52.138;5.446;2022-09-17T08:46:01;101658.63;;;12.44;74.19
71768;BME280;59604;52.138;5.446;2022-09-17T08:48:45;101667.88;;;12.48;74.39
71768;BME280;59604;52.138;5.446;2022-09-17T08:51:47;101658.03;;;12.57;74.89
71768;BME280;59604;52.138;5.446;2022-09-17T09:05:47;101671.44;;;13.00;71.11
71768;BME280;59604;52.138;5.446;2022-09-17T09:08:42;101666.69;;;13.10;71.82
71768;BME280;59604;52.138;5.446;2022-09-17T09:11:14;101661.84;;;13.28;71.23
71768;BME280;59604;52.138;5.446;2022-09-17T09:13:47;101662.47;;;13.45;69.99
71768;BME280;59604;52.138;5.446;2022-09-17T09:16:21;101673.94;;;13.52;70.20
71768;BME280;59604;52.138;5.446;2022-09-17T09:18:52;101665.88;;;13.61;69.56
71768;BME280;59604;52.138;5.446;2022-09-17T09:21:27;101658.22;;;13.87;68.51
71768;BME280;59604;52.138;5.446;2022-09-17T09:34:42;101666.28;;;14.22;68.82
71768;BME280;59604;52.138;5.446;2022-09-17T09:37:18;101662.81;;;14.21;66.94
71768;BME280;59604;52.138;5.446;2022-09-17T09:39:47;101670.84;;;14.07;68.12
71768;BME280;59604;52.138;5.446;2022-09-17T09:42:28;101670.78;;;14.00;68.98
71768;BME280;59604;52.138;5.446;2022-09-17T09:44:58;101677.63;;;13.94;70.47
71768;BME280;59604;52.138;5.446;2022-09-17T09:47:41;101680.97;;;13.82;70.92
71768;BME280;59604;52.138;5.446;2022-09-17T09:53:43;101680.97;;;13.60;72.12
71768;BME280;59604;52.138;5.446;2022-09-17T09:56:31;101690.56;;;13.46;73.44
71768;BME280;59604;52.138;5.446;2022-09-17T09:58:59;101690.56;;;13.46;74.32
71768;BME280;59604;52.138;5.446;2022-09-17T10:01:27;101685.03;;;13.41;74.39
71768;BME280;59604;52.138;5.446;2022-09-17T10:03:55;101692.63;;;13.29;73.73
71768;BME280;59604;52.138;5.446;2022-09-17T10:06:28;101710.38;;;13.21;76.04
71768;BME280;59604;52.138;5.446;2022-09-17T10:11:27;101711.28;;;12.98;78.32
71768;BME280;59604;52.138;5.446;2022-09-17T10:14:14;101703.44;;;12.90;77.43
71768;BME280;59604;52.138;5.446;2022-09-17T10:16:41;101702.44;;;13.06;77.48
71768;BME280;59604;52.138;5.446;2022-09-17T10:21:36;101692.03;;;13.49;74.93
71768;BME280;59604;52.138;5.446;2022-09-17T10:24:26;101688.84;;;13.39;75.06
71768;BME280;59604;52.138;5.446;2022-09-17T10:27:14;101692.38;;;13.61;76.22
71768;BME280;59604;52.138;5.446;2022-09-17T10:29:43;101693.34;;;13.96;74.23
71768;BME280;59604;52.138;5.446;2022-09-17T10:32:16;101686.59;;;14.15;74.80
71768;BME280;59604;52.138;5.446;2022-09-17T10:37:45;101681.59;;;14.26;74.82
71768;BME280;59604;52.138;5.446;2022-09-17T10:42:46;101678.31;;;14.24;72.29
71768;BME280;59604;52.138;5.446;2022-09-17T10:45:24;101666.66;;;14.19;73.34
71768;BME280;59604;52.138;5.446;2022-09-17T10:47:51;101669.16;;;14.27;73.26
71768;BME280;59604;52.138;5.446;2022-09-17T10:50:20;101669.16;;;14.27;74.19
71768;BME280;59604;52.138;5.446;2022-09-17T10:52:51;101652.44;;;14.26;72.93
71768;BME280;59604;52.138;5.446;2022-09-17T11:06:44;101632.97;;;15.04;69.48
71768;BME280;59604;52.138;5.446;2022-09-17T11:15:32;101631.03;;;15.39;65.47
71768;BME280;59604;52.138;5.446;2022-09-17T11:21:23;101619.91;;;15.77;61.85
71768;BME280;59604;52.138;5.446;2022-09-17T11:30:01;101634.22;;;15.89;58.13
71768;BME280;59604;52.138;5.446;2022-09-17T11:33:03;101631.97;;;15.92;60.03
71768;BME280;59604;52.138;5.446;2022-09-17T11:35:35;101625.44;;;15.95;59.91
71768;BME280;59604;52.138;5.446;2022-09-17T11:38:41;101616.25;;;16.17;60.25
71768;BME280;59604;52.138;5.446;2022-09-17T11:41:13;101616.84;;;16.33;56.41
71768;BME280;59604;52.138;5.446;2022-09-17T11:43:45;101631.75;;;16.40;54.88
71768;BME280;59604;52.138;5.446;2022-09-17T11:46:36;101648.53;;;16.48;54.60
71768;BME280;59604;52.138;5.446;2022-09-17T11:49:09;101619.44;;;16.53;54.12
71768;BME280;59604;52.138;5.446;2022-09-17T11:51:46;101625.22;;;16.36;53.10
71768;BME280;59604;52.138;5.446;2022-09-17T11:56:51;101631.56;;;16.29;53.87
71768;BME280;59604;52.138;5.446;2022-09-17T12:02:01;101626.69;;;15.99;56.10
71768;BME280;59604;52.138;5.446;2022-09-17T12:04:40;101639.75;;;15.81;56.71
71768;BME280;59604;52.138;5.446;2022-09-17T12:09:44;101657.63;;;14.97;64.84
71768;BME280;59604;52.138;5.446;2022-09-17T12:12:15;101652.13;;;14.64;65.72
71768;BME280;59604;52.138;5.446;2022-09-17T12:15:17;101673.78;;;14.46;69.56
71768;BME280;59604;52.138;5.446;2022-09-17T12:17:58;101678.16;;;14.05;73.07
71768;BME280;59604;52.138;5.446;2022-09-17T12:20:51;101660.84;;;13.66;75.83
71768;BME280;59604;52.138;5.446;2022-09-17T12:23:42;101670.94;;;13.56;74.95
71768;BME280;59604;52.138;5.446;2022-09-17T12:26:46;101670.16;;;13.62;74.78
71768;BME280;59604;52.138;5.446;2022-09-17T12:38:17;101665.06;;;14.24;73.42
71768;BME280;59604;52.138;5.446;2022-09-17T12:43:45;101649.88;;;14.12;75.36
71768;BME280;59604;52.138;5.446;2022-09-17T12:51:52;101643.03;;;15.21;72.62
71768;BME280;59604;52.138;5.446;2022-09-17T12:59:29;101681.50;;;14.97;70.31
71768;BME280;59604;52.138;5.446;2022-09-17T13:02:10;101695.16;;;14.38;73.93
71768;BME280;59604;52.138;5.446;2022-09-17T13:05:08;101683.91;;;13.36;78.22
71768;BME280;59604;52.138;5.446;2022-09-17T13:07:52;101678.47;;;12.93;81.40
71768;BME280;59604;52.138;5.446;2022-09-17T13:13:46;101662.44;;;13.60;83.46
71768;BME280;59604;52.138;5.446;2022-09-17T13:16:24;101650.91;;;13.89;83.19
71768;BME280;59604;52.138;5.446;2022-09-17T13:21:44;101645.78;;;14.59;82.47
71768;BME280;59604;52.138;5.446;2022-09-17T13:24:19;101643.47;;;14.84;79.15
71768;BME280;59604;52.138;5.446;2022-09-17T13:26:48;101635.19;;;14.65;80.31
71768;BME280;59604;52.138;5.446;2022-09-17T13:37:36;101633.63;;;15.19;79.27
71768;BME280;59604;52.138;5.446;2022-09-17T13:40:19;101627.16;;;15.41;76.58
71768;BME280;59604;52.138;5.446;2022-09-17T13:42:51;101633.69;;;15.32;76.71
71768;BME280;59604;52.138;5.446;2022-09-17T13:45:22;101652.53;;;14.96;72.81
71768;BME280;59604;52.138;5.446;2022-09-17T13:47:53;101670.63;;;14.30;71.80
71768;BME280;59604;52.138;5.446;2022-09-17T13:53:25;101670.16;;;13.40;76.79
71768;BME280;59604;52.138;5.446;2022-09-17T13:55:54;101669.44;;;13.32;77.42
71768;BME280;59604;52.138;5.446;2022-09-17T13:58:32;101675.81;;;13.22;77.31
71768;BME280;59604;52.138;5.446;2022-09-17T14:01:00;101673.44;;;13.27;79.64
71768;BME280;59604;52.138;5.446;2022-09-17T14:18:57;101665.25;;;14.23;71.49
71768;BME280;59604;52.138;5.446;2022-09-17T14:21:33;101673.44;;;14.28;75.50
71768;BME280;59604;52.138;5.446;2022-09-17T14:24:19;101674.56;;;14.40;72.98
71768;BME280;59604;52.138;5.446;2022-09-17T14:35:25;101660.75;;;14.45;69.30
71768;BME280;59604;52.138;5.446;2022-09-17T14:37:57;101659.41;;;14.56;68.02
71768;BME280;59604;52.138;5.446;2022-09-17T14:40:25;101659.47;;;14.62;68.53
71768;BME280;59604;52.138;5.446;2022-09-17T14:42:57;101659.84;;;14.59;66.75
71768;BME280;59604;52.138;5.446;2022-09-17T14:45:28;101646.00;;;14.64;70.83
71768;BME280;59604;52.138;5.446;2022-09-17T14:48:26;101654.78;;;14.64;68.81
71768;BME280;59604;52.138;5.446;2022-09-17T14:53:47;101648.53;;;14.79;68.38
71768;BME280;59604;52.138;5.446;2022-09-17T14:56:19;101641.88;;;14.89;67.75
71768;BME280;59604;52.138;5.446;2022-09-17T14:58:52;101646.41;;;15.02;67.54
71768;BME280;59604;52.138;5.446;2022-09-17T15:01:22;101661.72;;;15.00;63.14
71768;BME280;59604;52.138;5.446;2022-09-17T15:03:49;101649.06;;;14.95;62.75
71768;BME280;59604;52.138;5.446;2022-09-17T15:06:32;101648.84;;;14.97;61.94
71768;BME280;59604;52.138;5.446;2022-09-17T15:08:59;101637.88;;;15.07;62.60
71768;BME280;59604;52.138;5.446;2022-09-17T15:11:27;101642.38;;;15.13;62.76
71768;BME280;59604;52.138;5.446;2022-09-17T15:13:53;101637.06;;;15.13;59.47
71768;BME280;59604;52.138;5.446;2022-09-17T15:16:24;101642.16;;;15.08;61.75
71768;BME280;59604;52.138;5.446;2022-09-17T15:18:53;101657.25;;;15.07;61.55
71768;BME280;59604;52.138;5.446;2022-09-17T15:23:53;101642.50;;;14.98;58.73
71768;BME280;59604;52.138;5.446;2022-09-17T15:26:26;101642.94;;;14.95;61.75
71768;BME280;59604;52.138;5.446;2022-09-17T15:28:56;101644.13;;;14.92;60.90
71768;BME280;59604;52.138;5.446;2022-09-17T15:31:23;101659.41;;;14.90;63.34
71768;BME280;59604;52.138;5.446;2022-09-17T15:33:50;101658.13;;;14.80;65.13
71768;BME280;59604;52.138;5.446;2022-09-17T15:36:21;101673.56;;;14.41;69.33
71768;BME280;59604;52.138;5.446;2022-09-17T15:38:49;101663.94;;;14.12;70.53
71768;BME280;59604;52.138;5.446;2022-09-17T15:43:49;101673.28;;;13.87;70.85
71768;BME280;59604;52.138;5.446;2022-09-17T15:46:25;101669.63;;;14.09;70.82
71768;BME280;59604;52.138;5.446;2022-09-17T15:48:53;101671.06;;;14.33;66.58
71768;BME280;59604;52.138;5.446;2022-09-17T15:51:33;101665.66;;;14.48;64.39
71768;BME280;59604;52.138;5.446;2022-09-17T15:54:02;101670.47;;;14.38;63.16
71768;BME280;59604;52.138;5.446;2022-09-17T15:56:37;101662.81;;;14.21;65.25
71768;BME280;59604;52.138;5.446;2022-09-17T15:59:22;101665.78;;;14.12;64.92
71768;BME280;59604;52.138;5.446;2022-09-17T16:01:53;101657.00;;;14.11;64.86
71768;BME280;59604;52.138;5.446;2022-09-17T16:04:31;101649.75;;;14.20;64.84
71768;BME280;59604;52.138;5.446;2022-09-17T16:07:25;101655.31;;;14.32;65.21
71768;BME280;59604;52.138;5.446;2022-09-17T16:09:52;101653.47;;;14.25;64.28
71768;BME280;59604;52.138;5.446;2022-09-17T16:12:24;101656.63;;;14.14;64.17
71768;BME280;59604;52.138;5.446;2022-09-17T16:14:53;101660.25;;;14.07;64.09
71768;BME280;59604;52.138;5.446;2022-09-17T16:17:26;101653.28;;;14.06;63.83